createdAt,value
2018-06-01T00:01:10.842Z,8.02
2018-06-01T00:03:38.425Z,7.12
2018-06-01T00:06:06.094Z,7.47
2018-06-01T00:08:33.726Z,6.97
2018-06-01T00:11:01.284Z,7.18
2018-06-01T00:13:28.890Z,7.05
2018-06-01T00:15:56.546Z,8.45
2018-06-01T00:18:24.240Z,7.15
2018-06-01T00:20:51.861Z,8.18
2018-06-01T00:23:20.299Z,6.93
2018-06-01T00:25:48.766Z,8.63
2018-06-01T00:28:16.308Z,8.98
2018-06-01T00:30:43.857Z,8.35
2018-06-01T00:33:11.495Z,9.90
2018-06-01T00:35:39.183Z,8.90
2018-06-01T00:38:06.813Z,7.53
2018-06-01T00:40:35.155Z,8.80
2018-06-01T00:43:02.757Z,9.15
2018-06-01T00:45:31.091Z,10.25
2018-06-01T00:47:58.684Z,11.00
2018-06-01T00:50:26.224Z,11.12
2018-06-01T00:52:54.536Z,10.23
2018-06-01T00:55:25.031Z,8.40
2018-06-01T00:57:52.562Z,9.93
2018-06-01T01:00:20.191Z,11.10
2018-06-01T01:02:48.508Z,7.78
2018-06-01T01:05:16.120Z,10.38
2018-06-01T01:07:43.716Z,8.07
2018-06-01T01:10:11.334Z,8.82
2018-06-01T01:12:39.768Z,9.55
2018-06-01T01:15:08.148Z,7.70
2018-06-01T01:17:35.712Z,8.37
2018-06-01T01:20:03.256Z,9.45
2018-06-01T01:22:31.629Z,9.27
2018-06-01T01:24:59.998Z,9.90
2018-06-01T01:27:27.645Z,9.23
2018-06-01T01:29:56.029Z,7.57
2018-06-01T01:32:24.422Z,8.48
2018-06-01T01:34:51.988Z,8.48
2018-06-01T01:37:31.442Z,8.43
2018-06-01T01:39:59.070Z,7.32
2018-06-01T01:42:27.402Z,8.20
2018-06-01T01:44:55.759Z,9.13
2018-06-01T01:47:23.313Z,8.48
2018-06-01T01:49:53.605Z,7.30
2018-06-01T01:52:21.211Z,9.98
2018-06-01T01:54:48.783Z,9.95
2018-06-01T01:57:16.352Z,9.13
2018-06-01T01:59:44.692Z,8.80
2018-06-01T02:02:13.124Z,8.48
2018-06-01T02:04:41.537Z,8.97
2018-06-01T02:07:09.212Z,7.93
2018-06-01T02:09:37.643Z,8.87
2018-06-01T02:12:05.217Z,9.52
2018-06-01T02:14:32.909Z,9.52
2018-06-01T02:17:00.531Z,8.88
2018-06-01T02:19:28.843Z,8.30
2018-06-01T02:21:56.441Z,10.00
2018-06-01T02:24:24.102Z,7.95
2018-06-01T02:26:52.214Z,8.15
2018-06-01T02:29:19.844Z,10.15
2018-06-01T02:31:47.398Z,10.07
2018-06-01T02:34:15.019Z,8.73
2018-06-01T02:36:42.668Z,8.03
2018-06-01T02:39:11.100Z,8.70
2018-06-01T02:41:38.648Z,9.27
2018-06-01T02:44:07.008Z,9.45
2018-06-01T02:46:34.619Z,10.57
2018-06-01T02:49:02.230Z,11.90
2018-06-01T02:51:30.570Z,11.30
2018-06-01T02:53:58.207Z,12.00
2018-06-01T02:56:25.734Z,11.35
2018-06-01T02:58:53.337Z,11.88
2018-06-01T03:01:20.981Z,12.45
2018-06-01T03:03:48.525Z,11.82
2018-06-01T03:06:16.140Z,12.48
2018-06-01T03:08:43.772Z,11.60
2018-06-01T03:11:11.333Z,12.75
2018-06-01T03:13:39.009Z,11.57
2018-06-01T03:16:06.617Z,11.15
2018-06-01T03:18:34.186Z,11.70
2018-06-01T03:21:02.541Z,12.00
2018-06-01T03:23:30.158Z,13.20
2018-06-01T03:25:57.704Z,12.10
2018-06-01T03:28:26.052Z,11.53
2018-06-01T03:30:54.486Z,12.95
2018-06-01T03:33:22.036Z,12.65
2018-06-01T03:35:49.635Z,12.90
2018-06-01T03:38:17.174Z,12.95
2018-06-01T03:40:44.873Z,13.27
2018-06-01T03:43:13.176Z,13.65
2018-06-01T03:45:41.551Z,14.45
2018-06-01T03:48:09.159Z,14.75
2018-06-01T03:50:36.805Z,14.35
2018-06-01T03:53:05.144Z,14.07
2018-06-01T03:55:32.754Z,14.63
2018-06-01T03:58:00.443Z,14.35
2018-06-01T04:00:28.026Z,16.65
2018-06-01T04:02:55.612Z,13.90
2018-06-01T04:05:23.276Z,14.95
2018-06-01T04:07:50.834Z,14.87
2018-06-01T04:10:19.152Z,14.05
2018-06-01T04:12:46.754Z,14.55
2018-06-01T04:15:14.331Z,16.58
2018-06-01T04:17:42.657Z,15.35
2018-06-01T04:20:10.257Z,15.43
2018-06-01T04:22:37.817Z,13.40
2018-06-01T04:25:06.219Z,13.05
2018-06-01T04:27:34.578Z,12.35
2018-06-01T04:30:02.115Z,12.47
2018-06-01T04:32:29.835Z,13.10
2018-06-01T04:34:57.369Z,13.32
2018-06-01T04:37:25.664Z,12.82
2018-06-01T04:39:53.212Z,13.52
2018-06-01T04:42:20.844Z,10.70
2018-06-01T04:44:48.454Z,12.23
2018-06-01T04:47:15.992Z,11.10
2018-06-01T04:49:44.311Z,12.00
2018-06-01T04:52:11.956Z,13.60
2018-06-01T04:54:40.329Z,13.15
2018-06-01T04:57:08.817Z,12.98
2018-06-01T04:59:36.364Z,11.90
2018-06-01T05:02:03.905Z,12.15
2018-06-01T05:04:32.891Z,11.68
2018-06-01T05:07:00.535Z,13.73
2018-06-01T05:09:28.207Z,11.05
2018-06-01T05:11:56.602Z,14.15
2018-06-01T05:14:24.114Z,10.30
2018-06-01T05:16:52.446Z,12.68
2018-06-01T05:19:20.172Z,11.60
2018-06-01T05:21:47.714Z,11.75
2018-06-01T05:24:16.174Z,11.30
2018-06-01T05:26:44.534Z,11.65
2018-06-01T05:29:12.151Z,12.10
2018-06-01T05:31:40.488Z,10.60
2018-06-01T05:34:08.154Z,12.85
2018-06-01T05:36:36.492Z,12.63
2018-06-01T05:39:06.817Z,13.00
2018-06-01T05:41:34.428Z,12.35
2018-06-01T05:44:02.055Z,11.80
2018-06-01T05:46:29.583Z,9.45
2018-06-01T05:48:57.202Z,10.83
2018-06-01T05:51:25.533Z,10.88
2018-06-01T05:53:53.124Z,9.40
2018-06-01T05:56:21.595Z,10.73
2018-06-01T05:58:50.635Z,15.90
2018-06-01T06:01:18.213Z,10.25
2018-06-01T06:03:46.573Z,11.82
2018-06-01T06:06:14.127Z,8.95
2018-06-01T06:08:41.659Z,9.70
2018-06-01T06:11:09.309Z,10.10
2018-06-01T06:13:36.925Z,12.15
2018-06-01T06:16:04.489Z,10.23
2018-06-01T06:18:32.163Z,10.35
2018-06-01T06:21:00.492Z,11.75
2018-06-01T06:23:29.167Z,9.32
2018-06-01T06:25:57.170Z,10.52
2018-06-01T06:28:24.824Z,8.25
2018-06-01T06:30:52.499Z,8.00
2018-06-01T06:33:20.120Z,10.03
2018-06-01T06:35:47.757Z,13.73
2018-06-01T06:38:20.312Z,8.53
2018-06-01T06:40:48.981Z,9.60
2018-06-01T06:43:16.751Z,8.60
2018-06-01T06:45:44.384Z,10.32
2018-06-01T06:48:12.030Z,8.65
2018-06-01T06:50:39.553Z,7.57
2018-06-01T06:53:07.950Z,8.02
2018-06-01T06:55:35.547Z,10.00
2018-06-01T06:58:03.082Z,9.43
2018-06-01T07:00:30.693Z,8.38
2018-06-01T07:02:58.265Z,8.50
2018-06-01T07:05:25.840Z,6.82
2018-06-01T07:07:54.523Z,7.22
2018-06-01T07:10:22.969Z,7.20
2018-06-01T07:12:50.647Z,7.00
2018-06-01T07:15:18.281Z,6.67
2018-06-01T07:17:45.854Z,7.55
2018-06-01T07:20:13.464Z,7.70
2018-06-01T07:22:40.987Z,6.28
2018-06-01T07:25:08.716Z,6.30
2018-06-01T07:27:36.313Z,7.15
2018-06-01T07:30:03.942Z,6.27
2018-06-01T07:32:32.273Z,7.97
2018-06-01T07:34:59.871Z,6.68
2018-06-01T07:37:28.198Z,6.68
2018-06-01T07:39:55.758Z,8.02
2018-06-01T07:42:23.318Z,8.10
2018-06-01T07:44:51.747Z,8.30
2018-06-01T07:47:20.088Z,6.53
2018-06-01T07:49:47.740Z,6.50
2018-06-01T07:52:15.386Z,5.87
2018-06-01T07:54:43.781Z,6.10
2018-06-01T07:57:11.619Z,8.20
2018-06-01T07:59:39.251Z,6.30
2018-06-01T08:02:07.761Z,7.20
2018-06-01T08:04:36.080Z,5.10
2018-06-01T08:07:03.696Z,6.28
2018-06-01T08:09:32.088Z,7.12
2018-06-01T08:12:07.634Z,6.93
2018-06-01T08:14:36.309Z,7.90
2018-06-01T08:17:07.381Z,6.28
2018-06-01T08:19:35.272Z,7.43
2018-06-01T08:22:02.918Z,7.80
2018-06-01T08:24:35.242Z,7.80
2018-06-01T08:27:07.352Z,7.97
2018-06-01T08:29:34.952Z,8.50
2018-06-01T08:32:02.939Z,8.20
2018-06-01T08:34:30.573Z,5.93
2018-06-01T08:36:58.139Z,6.00
2018-06-01T08:39:26.509Z,5.20
2018-06-01T08:41:54.092Z,6.70
2018-06-01T08:44:21.707Z,8.93
2018-06-01T08:46:49.455Z,17.87
2018-06-01T08:49:17.248Z,7.32
2018-06-01T08:51:45.723Z,13.80
2018-06-01T08:54:13.356Z,5.30
2018-06-01T08:56:47.028Z,8.10
2018-06-01T08:59:20.490Z,8.95
2018-06-01T09:01:48.430Z,6.60
2018-06-01T09:04:16.046Z,7.00
2018-06-01T09:06:43.627Z,5.80
2018-06-01T09:09:11.194Z,7.35
2018-06-01T09:11:38.837Z,6.18
2018-06-01T09:14:06.539Z,5.15
2018-06-01T09:16:34.159Z,8.35
2018-06-01T09:19:02.460Z,6.22
2018-06-01T09:21:30.118Z,5.72
2018-06-01T09:23:58.128Z,5.30
2018-06-01T09:26:26.472Z,5.22
2018-06-01T09:28:54.064Z,8.98
2018-06-01T09:31:21.599Z,7.65
2018-06-01T09:33:49.216Z,6.00
2018-06-01T09:36:16.932Z,6.03
2018-06-01T09:38:44.552Z,5.80
2018-06-01T09:41:12.242Z,4.90
2018-06-01T09:43:39.909Z,9.75
2018-06-01T09:46:07.585Z,8.60
2018-06-01T09:48:35.212Z,7.28
2018-06-01T09:51:02.895Z,6.00
2018-06-01T09:53:31.259Z,5.32
2018-06-01T09:55:58.856Z,5.05
2018-06-01T09:58:26.476Z,7.37
2018-06-01T10:00:59.868Z,6.22
2018-06-01T10:03:29.542Z,5.57
2018-06-01T10:05:57.882Z,5.53
2018-06-01T10:08:26.314Z,5.78
2018-06-01T10:10:54.636Z,7.53
2018-06-01T10:13:23.059Z,6.97
2018-06-01T10:15:50.590Z,9.77
2018-06-01T10:18:18.264Z,10.15
2018-06-01T10:20:45.886Z,6.57
2018-06-01T10:23:13.718Z,6.28
2018-06-01T10:25:42.085Z,16.37
2018-06-01T10:28:10.526Z,7.20
2018-06-01T10:30:38.982Z,6.05
2018-06-01T10:33:07.317Z,6.25
2018-06-01T10:35:35.136Z,5.12
2018-06-01T10:38:03.053Z,7.03
2018-06-01T10:40:30.722Z,6.45
2018-06-01T10:43:01.235Z,5.80
2018-06-01T10:45:32.188Z,7.07
2018-06-01T10:48:00.810Z,5.00
2018-06-01T10:50:28.554Z,6.78
2018-06-01T10:52:57.031Z,5.43
2018-06-01T10:55:25.348Z,7.15
2018-06-01T10:57:52.954Z,5.12
2018-06-01T11:00:20.514Z,7.70
2018-06-01T11:02:48.811Z,7.10
2018-06-01T11:05:16.362Z,5.27
2018-06-01T11:07:44.003Z,6.85
2018-06-01T11:10:11.535Z,5.50
2018-06-01T11:12:39.919Z,6.73
2018-06-01T11:15:08.247Z,7.25
2018-06-01T11:17:36.475Z,11.25
2018-06-01T11:20:06.464Z,7.00
2018-06-01T11:22:39.649Z,6.83
2018-06-01T11:25:08.135Z,5.43
2018-06-01T11:27:36.221Z,5.87
2018-06-01T11:30:04.904Z,6.73
2018-06-01T11:32:32.531Z,9.93
2018-06-01T11:35:00.972Z,7.40
2018-06-01T11:37:28.645Z,5.70
2018-06-01T11:39:57.010Z,6.25
2018-06-01T11:42:24.726Z,6.12
2018-06-01T11:44:52.247Z,5.85
2018-06-01T11:47:20.602Z,5.97
2018-06-01T11:49:48.950Z,6.37
2018-06-01T11:52:17.283Z,5.67
2018-06-01T11:54:45.683Z,6.10
2018-06-01T11:57:16.194Z,5.60
2018-06-01T11:59:43.843Z,5.20
2018-06-01T12:02:12.207Z,5.97
2018-06-01T12:04:39.840Z,5.60
2018-06-01T12:07:07.466Z,6.18
2018-06-01T12:09:35.022Z,6.68
2018-06-01T12:12:02.591Z,6.43
2018-06-01T12:14:30.206Z,6.60
2018-06-01T12:16:57.755Z,5.23
2018-06-01T12:19:25.378Z,5.73
2018-06-01T12:21:53.701Z,4.45
2018-06-01T12:24:22.009Z,4.82
2018-06-01T12:26:50.360Z,5.33
2018-06-01T12:29:19.097Z,7.17
2018-06-01T12:31:46.585Z,4.95
2018-06-01T12:34:18.773Z,5.82
2018-06-01T12:36:57.107Z,5.47
2018-06-01T12:39:24.734Z,4.90
2018-06-01T12:41:52.318Z,6.57
2018-06-01T12:44:19.859Z,5.23
2018-06-01T12:46:48.817Z,4.70
2018-06-01T12:49:17.904Z,9.15
2018-06-01T12:51:45.450Z,3.92
2018-06-01T12:54:13.042Z,4.00
2018-06-01T12:56:42.029Z,4.57
2018-06-01T12:59:09.843Z,5.50
2018-06-01T13:01:38.405Z,4.20
2018-06-01T13:04:07.735Z,4.95
2018-06-01T13:06:35.361Z,4.68
2018-06-01T13:09:03.934Z,4.85
2018-06-01T13:11:31.640Z,4.85
2018-06-01T13:13:59.201Z,3.92
2018-06-01T13:16:27.743Z,6.03
2018-06-01T13:18:55.367Z,5.18
2018-06-01T13:21:22.937Z,4.73
2018-06-01T13:23:51.238Z,3.87
2018-06-01T13:26:19.556Z,4.68
2018-06-01T13:28:47.194Z,5.80
2018-06-01T13:31:14.765Z,5.28
2018-06-01T13:33:42.416Z,4.28
2018-06-01T13:36:09.960Z,4.07
2018-06-01T13:38:37.490Z,5.27
2018-06-01T13:41:05.112Z,4.80
2018-06-01T13:43:32.911Z,6.10
2018-06-01T13:46:00.455Z,4.30
2018-06-01T13:48:28.048Z,4.90
2018-06-01T13:50:55.711Z,4.25
2018-06-01T13:53:23.865Z,3.80
2018-06-01T13:55:52.171Z,4.12
2018-06-01T13:58:20.486Z,4.20
2018-06-01T14:00:48.077Z,4.18
2018-06-01T14:03:16.382Z,5.78
2018-06-01T14:05:45.100Z,4.43
2018-06-01T14:08:12.726Z,4.93
2018-06-01T14:10:41.683Z,4.78
2018-06-01T14:13:15.485Z,4.20
2018-06-01T14:15:43.495Z,3.67
2018-06-01T14:18:11.010Z,3.67
2018-06-01T14:20:38.557Z,4.62
2018-06-01T14:23:06.145Z,4.45
2018-06-01T14:25:33.694Z,3.65
2018-06-01T14:28:01.246Z,3.85
2018-06-01T14:30:29.670Z,3.77
2018-06-01T14:32:57.364Z,4.13
2018-06-01T14:35:24.990Z,3.95
2018-06-01T14:37:52.553Z,5.03
2018-06-01T14:40:20.244Z,4.62
2018-06-01T14:42:47.917Z,3.40
2018-06-01T14:45:15.562Z,7.33
2018-06-01T14:47:43.179Z,3.50
2018-06-01T14:50:10.709Z,4.40
2018-06-01T14:52:38.341Z,4.78
2018-06-01T14:55:05.892Z,4.37
2018-06-01T14:57:33.435Z,4.03
2018-06-01T15:00:01.023Z,4.40
2018-06-01T15:02:28.618Z,4.68
2018-06-01T15:04:56.137Z,5.17
2018-06-01T15:07:23.989Z,7.20
2018-06-01T15:09:52.283Z,4.07
2018-06-01T15:12:20.590Z,4.85
2018-06-01T15:14:48.132Z,5.97
2018-06-01T15:17:15.713Z,3.00
2018-06-01T15:19:43.296Z,6.43
2018-06-01T15:22:10.958Z,3.62
2018-06-01T15:24:40.195Z,3.25
2018-06-01T15:27:07.848Z,4.25
2018-06-01T15:29:35.501Z,4.12
2018-06-01T15:32:03.101Z,4.90
2018-06-01T15:34:30.707Z,4.80
2018-06-01T15:36:58.364Z,3.85
2018-06-01T15:39:25.953Z,3.47
2018-06-01T15:41:53.515Z,5.23
2018-06-01T15:44:21.101Z,3.80
2018-06-01T15:46:48.724Z,3.65
2018-06-01T15:49:16.345Z,3.60
2018-06-01T15:51:43.929Z,5.00
2018-06-01T15:54:11.534Z,4.50
2018-06-01T15:56:39.142Z,3.65
2018-06-01T15:59:07.521Z,4.60
2018-06-01T16:01:35.129Z,4.47
2018-06-01T16:04:03.341Z,3.15
2018-06-01T16:06:30.919Z,3.73
2018-06-01T16:08:58.458Z,4.20
2018-06-01T16:11:26.063Z,5.05
2018-06-01T16:13:54.112Z,4.30
2018-06-01T16:16:22.437Z,4.20
2018-06-01T16:18:50.746Z,4.10
2018-06-01T16:21:18.409Z,3.58
2018-06-01T16:23:46.049Z,5.43
2018-06-01T16:26:13.663Z,5.18
2018-06-01T16:28:42.045Z,6.87
2018-06-01T16:31:09.666Z,6.20
2018-06-01T16:33:37.307Z,5.23
2018-06-01T16:36:06.202Z,4.72
2018-06-01T16:38:33.906Z,5.00
2018-06-01T16:41:01.547Z,4.37
2018-06-01T16:43:29.171Z,4.20
2018-06-01T16:45:57.484Z,3.67
2018-06-01T16:48:25.338Z,4.03
2018-06-01T16:50:58.767Z,4.10
2018-06-01T16:53:26.636Z,4.77
2018-06-01T16:55:54.283Z,4.50
2018-06-01T16:58:21.885Z,4.93
2018-06-01T17:00:50.567Z,4.97
2018-06-01T17:03:18.224Z,3.70
2018-06-01T17:05:45.847Z,5.57
2018-06-01T17:08:13.450Z,4.47
2018-06-01T17:10:41.083Z,3.17
2018-06-01T17:13:09.995Z,5.37
2018-06-01T17:15:38.433Z,4.62
2018-06-01T17:18:05.929Z,12.98
2018-06-01T17:20:33.528Z,6.32
2018-06-01T17:23:01.985Z,7.40
2018-06-01T17:25:29.609Z,8.87
2018-06-01T17:27:57.261Z,5.03
2018-06-01T17:30:24.927Z,4.75
2018-06-01T17:32:52.584Z,3.90
2018-06-01T17:35:20.208Z,3.72
2018-06-01T17:37:47.759Z,4.93
2018-06-01T17:40:15.380Z,4.93
2018-06-01T17:42:42.990Z,4.62
2018-06-01T17:45:10.544Z,4.40
2018-06-01T17:47:39.202Z,6.03
2018-06-01T17:50:07.700Z,5.07
2018-06-01T17:52:35.393Z,4.00
2018-06-01T17:55:02.940Z,3.80
2018-06-01T17:57:30.504Z,6.47
2018-06-01T17:59:58.067Z,4.70
2018-06-01T18:02:25.675Z,4.82
2018-06-01T18:04:53.989Z,3.80
2018-06-01T18:07:21.649Z,3.92
2018-06-01T18:09:49.258Z,5.55
2018-06-01T18:12:17.605Z,6.10
2018-06-01T18:14:45.262Z,4.70
2018-06-01T18:17:12.909Z,6.00
2018-06-01T18:19:40.525Z,6.97
2018-06-01T18:22:08.088Z,4.10
2018-06-01T18:24:36.488Z,3.55
2018-06-01T18:27:04.821Z,4.32
2018-06-01T18:29:32.446Z,6.25
2018-06-01T18:32:00.036Z,4.93
2018-06-01T18:34:27.667Z,3.95
2018-06-01T18:36:55.190Z,3.65
2018-06-01T18:39:22.801Z,6.75
2018-06-01T18:41:50.460Z,6.18
2018-06-01T18:44:18.791Z,5.07
2018-06-01T18:46:46.420Z,4.20
2018-06-01T18:49:13.967Z,4.85
2018-06-01T18:51:41.555Z,5.40
2018-06-01T18:54:09.219Z,5.83
2018-06-01T18:56:36.880Z,5.30
2018-06-01T18:59:04.455Z,5.87
2018-06-01T19:01:32.105Z,8.80
2018-06-01T19:03:59.707Z,7.32
2018-06-01T19:06:27.855Z,6.00
2018-06-01T19:08:56.048Z,6.90
2018-06-01T19:11:23.576Z,7.70
2018-06-01T19:13:51.204Z,5.90
2018-06-01T19:16:18.798Z,7.80
2018-06-01T19:18:46.403Z,8.93
2018-06-01T19:21:14.010Z,7.05
2018-06-01T19:23:41.645Z,6.43
2018-06-01T19:26:09.225Z,5.10
2018-06-01T19:28:43.271Z,6.65
2018-06-01T19:31:11.069Z,6.07
2018-06-01T19:33:38.705Z,5.50
2018-06-01T19:36:06.259Z,5.28
2018-06-01T19:38:35.819Z,5.93
2018-06-01T19:41:03.632Z,6.12
2018-06-01T19:43:31.218Z,6.83
2018-06-01T19:45:58.785Z,6.80
2018-06-01T19:48:26.365Z,5.95
2018-06-01T19:50:53.924Z,5.03
2018-06-01T19:53:21.829Z,4.53
2018-06-01T19:55:49.614Z,6.55
2018-06-01T19:58:17.182Z,5.18
2018-06-01T20:00:44.762Z,6.00
2018-06-01T20:03:12.397Z,5.07
2018-06-01T20:05:39.960Z,5.40
2018-06-01T20:08:07.585Z,5.75
2018-06-01T20:10:36.399Z,4.50
2018-06-01T20:13:04.766Z,5.90
2018-06-01T20:15:32.407Z,6.35
2018-06-01T20:18:00.057Z,5.87
2018-06-01T20:20:27.597Z,4.32
2018-06-01T20:22:55.209Z,5.95
2018-06-01T20:25:22.825Z,7.50
2018-06-01T20:27:51.752Z,4.37
2018-06-01T20:30:19.347Z,5.20
2018-06-01T20:32:46.903Z,5.30
2018-06-01T20:35:15.357Z,5.78
2018-06-01T20:37:43.035Z,4.97
2018-06-01T20:40:10.550Z,6.00
2018-06-01T20:42:38.090Z,5.90
2018-06-01T20:45:06.426Z,6.22
2018-06-01T20:47:33.997Z,7.50
2018-06-01T20:50:01.674Z,4.70
2018-06-01T20:52:29.254Z,5.67
2018-06-01T20:54:56.807Z,4.70
2018-06-01T20:57:24.361Z,5.05
2018-06-01T20:59:52.305Z,5.40
2018-06-01T21:02:19.887Z,6.07
2018-06-01T21:04:47.489Z,5.82
2018-06-01T21:07:15.814Z,5.10
2018-06-01T21:09:43.467Z,5.62
2018-06-01T21:12:11.101Z,6.47
2018-06-01T21:14:38.704Z,6.85
2018-06-01T21:17:06.248Z,6.05
2018-06-01T21:19:33.863Z,6.05
2018-06-01T21:22:01.842Z,6.07
2018-06-01T21:24:30.477Z,5.55
2018-06-01T21:26:58.888Z,6.25
2018-06-01T21:29:26.440Z,6.35
2018-06-01T21:31:54.910Z,5.97
2018-06-01T21:34:22.439Z,5.18
2018-06-01T21:36:49.998Z,6.35
2018-06-01T21:39:17.584Z,5.50
2018-06-01T21:41:46.016Z,5.03
2018-06-01T21:44:13.570Z,5.20
2018-06-01T21:46:41.100Z,5.72
2018-06-01T21:49:09.845Z,5.78
2018-06-01T21:51:37.427Z,7.47
2018-06-01T21:54:05.099Z,5.62
2018-06-01T21:56:33.418Z,5.37
2018-06-01T21:59:01.773Z,5.22
2018-06-01T22:01:30.088Z,5.40
2018-06-01T22:03:57.618Z,5.85
2018-06-01T22:06:30.427Z,6.00
2018-06-01T22:08:58.324Z,5.30
2018-06-01T22:11:26.912Z,5.45
2018-06-01T22:13:54.583Z,5.50
2018-06-01T22:16:22.157Z,6.40
2018-06-01T22:18:51.315Z,5.35
2018-06-01T22:21:19.689Z,5.35
2018-06-01T22:23:47.242Z,5.47
2018-06-01T22:26:15.597Z,6.03
2018-06-01T22:28:43.247Z,5.82
2018-06-01T22:31:11.825Z,5.90
2018-06-01T22:33:40.135Z,6.25
2018-06-01T22:36:07.678Z,5.85
2018-06-01T22:38:35.281Z,7.28
2018-06-01T22:41:02.910Z,5.15
2018-06-01T22:43:31.276Z,7.60
2018-06-01T22:45:59.607Z,8.32
2018-06-01T22:48:27.214Z,5.70
2018-06-01T22:50:54.852Z,5.70
2018-06-01T22:53:22.438Z,6.28
2018-06-01T22:55:50.124Z,6.22
2018-06-01T22:58:17.778Z,6.10
2018-06-01T23:00:46.273Z,6.05
2018-06-01T23:03:14.622Z,6.35
2018-06-01T23:05:42.244Z,6.20
2018-06-01T23:08:09.838Z,6.05
2018-06-01T23:10:37.436Z,5.95
2018-06-01T23:13:05.053Z,6.63
2018-06-01T23:15:32.602Z,6.25
2018-06-01T23:18:00.294Z,5.97
2018-06-01T23:20:27.943Z,6.43
2018-06-01T23:22:55.591Z,6.20
2018-06-01T23:25:23.155Z,6.30
2018-06-01T23:27:50.787Z,9.25
2018-06-01T23:30:18.393Z,7.37
2018-06-01T23:32:46.819Z,5.93
2018-06-01T23:35:14.338Z,6.25
2018-06-01T23:37:41.958Z,6.22
2018-06-01T23:40:09.487Z,6.28
2018-06-01T23:42:37.126Z,6.43
2018-06-01T23:45:04.775Z,6.35
2018-06-01T23:47:32.308Z,6.72
2018-06-01T23:50:00.867Z,6.37
2018-06-01T23:52:28.891Z,8.07
2018-06-01T23:54:56.432Z,6.70
2018-06-01T23:57:24.025Z,6.50
2018-06-01T23:59:51.599Z,6.53
